sensor_id;sensor_type;location;lat;lon;timestamp;pressure;altitude;pressure_sealevel;temperature;humidity
5062;BME280;2351;50.812;12.872;2024-02-28T00:00:11;97999.16;;;2.19;100.00
5062;BME280;2351;50.812;12.872;2024-02-28T00:02:43;97998.91;;;2.23;100.00
5062;BME280;2351;50.812;12.872;2024-02-28T00:05:15;97998.84;;;2.25;100.00
5062;BME280;2351;50.812;12.872;2024-02-28T00:07:47;98002.28;;;2.25;100.00
5062;BME280;2351;50.812;12.872;2024-02-28T00:10:18;98006.69;;;2.25;100.00
5062;BME280;2351;50.812;12.872;2024-02-28T00:12:52;98008.53;;;2.23;100.00
5062;BME280;2351;50.812;12.872;2024-02-28T00:15:23;98005.75;;;2.26;100.00
5062;BME280;2351;50.812;12.872;2024-02-28T00:17:55;98006.44;;;2.30;100.00
5062;BME280;2351;50.812;12.872;2024-02-28T00:20:27;98002.81;;;2.32;100.00
5062;BME280;2351;50.812;12.872;2024-02-28T00:23:00;98001.81;;;2.35;100.00
5062;BME280;2351;50.812;12.872;2024-02-28T00:25:31;97996.59;;;2.35;100.00
5062;BME280;2351;50.812;12.872;2024-02-28T00:28:04;97993.06;;;2.36;100.00
5062;BME280;2351;50.812;12.872;2024-02-28T00:30:36;97998.34;;;2.34;100.00
5062;BME280;2351;50.812;12.872;2024-02-28T00:33:08;97990.69;;;2.31;100.00
5062;BME280;2351;50.812;12.872;2024-02-28T00:35:39;98000.13;;;2.34;100.00
5062;BME280;2351;50.812;12.872;2024-02-28T00:38:11;97993.13;;;2.34;100.00
5062;BME280;2351;50.812;12.872;2024-02-28T00:40:43;97998.28;;;2.36;100.00
5062;BME280;2351;50.812;12.872;2024-02-28T00:43:16;98006.19;;;2.34;100.00
5062;BME280;2351;50.812;12.872;2024-02-28T00:45:47;98002.66;;;2.35;100.00
5062;BME280;2351;50.812;12.872;2024-02-28T00:48:19;97996.59;;;2.35;100.00
5062;BME280;2351;50.812;12.872;2024-02-28T00:50:51;97994.00;;;2.35;100.00
5062;BME280;2351;50.812;12.872;2024-02-28T00:53:23;97990.31;;;2.39;100.00
5062;BME280;2351;50.812;12.872;2024-02-28T00:55:55;97987.59;;;2.40;100.00
5062;BME280;2351;50.812;12.872;2024-02-28T00:58:28;97987.59;;;2.40;100.00
5062;BME280;2351;50.812;12.872;2024-02-28T01:01:00;97984.38;;;2.35;100.00
5062;BME280;2351;50.812;12.872;2024-02-28T01:03:32;97981.75;;;2.35;100.00
5062;BME280;2351;50.812;12.872;2024-02-28T01:06:04;97987.91;;;2.34;100.00
5062;BME280;2351;50.812;12.872;2024-02-28T01:08:35;97984.31;;;2.37;100.00
5062;BME280;2351;50.812;12.872;2024-02-28T01:11:07;97986.75;;;2.40;100.00
5062;BME280;2351;50.812;12.872;2024-02-28T01:13:40;97992.66;;;2.44;100.00
5062;BME280;2351;50.812;12.872;2024-02-28T01:16:12;97987.44;;;2.44;100.00
5062;BME280;2351;50.812;12.872;2024-02-28T01:18:44;97989.13;;;2.45;100.00
5062;BME280;2351;50.812;12.872;2024-02-28T01:21:15;97993.50;;;2.44;100.00
5062;BME280;2351;50.812;12.872;2024-02-28T01:23:47;97990.06;;;2.44;100.00
5062;BME280;2351;50.812;12.872;2024-02-28T01:26:19;97984.81;;;2.44;100.00
5062;BME280;2351;50.812;12.872;2024-02-28T01:28:53;97981.28;;;2.45;100.00
5062;BME280;2351;50.812;12.872;2024-02-28T01:31:25;97984.66;;;2.47;100.00
5062;BME280;2351;50.812;12.872;2024-02-28T01:33:57;97981.13;;;2.48;100.00
5062;BME280;2351;50.812;12.872;2024-02-28T01:36:29;97979.28;;;2.50;100.00
5062;BME280;2351;50.812;12.872;2024-02-28T01:39:00;97980.88;;;2.52;100.00
5062;BME280;2351;50.812;12.872;2024-02-28T01:41:33;97975.66;;;2.52;100.00
5062;BME280;2351;50.812;12.872;2024-02-28T01:44:06;97975.66;;;2.52;100.00
5062;BME280;2351;50.812;12.872;2024-02-28T01:46:38;97967.97;;;2.49;100.00
5062;BME280;2351;50.812;12.872;2024-02-28T01:49:09;97969.81;;;2.47;100.00
5062;BME280;2351;50.812;12.872;2024-02-28T01:51:41;97976.84;;;2.47;100.00
5062;BME280;2351;50.812;12.872;2024-02-28T01:54:13;97969.16;;;2.44;100.00
5062;BME280;2351;50.812;12.872;2024-02-28T01:56:46;97976.91;;;2.45;100.00
5062;BME280;2351;50.812;12.872;2024-02-28T01:59:19;97971.66;;;2.45;100.00
5062;BME280;2351;50.812;12.872;2024-02-28T02:01:54;97968.22;;;2.45;100.00
5062;BME280;2351;50.812;12.872;2024-02-28T02:04:25;97961.56;;;2.39;100.00
5062;BME280;2351;50.812;12.872;2024-02-28T02:06:57;97961.56;;;2.39;100.00
5062;BME280;2351;50.812;12.872;2024-02-28T02:09:31;97955.47;;;2.38;100.00
5062;BME280;2351;50.812;12.872;2024-02-28T02:12:05;97961.56;;;2.39;100.00
5062;BME280;2351;50.812;12.872;2024-02-28T02:14:38;97958.03;;;2.40;100.00
5062;BME280;2351;50.812;12.872;2024-02-28T02:17:09;97959.72;;;2.41;100.00
5062;BME280;2351;50.812;12.872;2024-02-28T02:19:41;97960.84;;;2.35;100.00
5062;BME280;2351;50.812;12.872;2024-02-28T02:22:13;97964.41;;;2.34;100.00
5062;BME280;2351;50.812;12.872;2024-02-28T02:24:47;97967.09;;;2.33;100.00
5062;BME280;2351;50.812;12.872;2024-02-28T02:27:19;97962.88;;;2.30;100.00
5062;BME280;2351;50.812;12.872;2024-02-28T02:29:50;97954.03;;;2.33;100.00
5062;BME280;2351;50.812;12.872;2024-02-28T02:32:22;97962.56;;;2.36;100.00
5062;BME280;2351;50.812;12.872;2024-02-28T02:34:54;97966.09;;;2.35;100.00
5062;BME280;2351;50.812;12.872;2024-02-28T02:37:26;97967.19;;;2.31;100.00
5062;BME280;2351;50.812;12.872;2024-02-28T02:39:59;97973.09;;;2.35;100.00
5062;BME280;2351;50.812;12.872;2024-02-28T02:42:31;97972.06;;;2.37;100.00
5062;BME280;2351;50.812;12.872;2024-02-28T02:45:03;97971.47;;;2.32;100.00
5062;BME280;2351;50.812;12.872;2024-02-28T02:47:35;97968.84;;;2.32;100.00
5062;BME280;2351;50.812;12.872;2024-02-28T02:50:07;97972.41;;;2.31;100.00
5062;BME280;2351;50.812;12.872;2024-02-28T02:52:38;97971.31;;;2.35;100.00
5062;BME280;2351;50.812;12.872;2024-02-28T02:55:12;97980.69;;;2.39;100.00
5062;BME280;2351;50.812;12.872;2024-02-28T02:57:43;97983.44;;;2.36;100.00
5062;BME280;2351;50.812;12.872;2024-02-28T03:00:16;97979.16;;;2.35;100.00
5062;BME280;2351;50.812;12.872;2024-02-28T03:02:48;97988.81;;;2.33;100.00
5062;BME280;2351;50.812;12.872;2024-02-28T03:05:20;97990.75;;;2.30;100.00
5062;BME280;2351;50.812;12.872;2024-02-28T03:07:51;97995.06;;;2.31;100.00
5062;BME280;2351;50.812;12.872;2024-02-28T03:10:24;97992.38;;;2.32;100.00
5062;BME280;2351;50.812;12.872;2024-02-28T03:12:56;97996.75;;;2.32;100.00
5062;BME280;2351;50.812;12.872;2024-02-28T03:15:28;97993.31;;;2.31;100.00
5062;BME280;2351;50.812;12.872;2024-02-28T03:17:59;97998.53;;;2.31;100.00
5062;BME280;2351;50.812;12.872;2024-02-28T03:20:32;98013.34;;;2.31;100.00
5062;BME280;2351;50.812;12.872;2024-02-28T03:23:04;98010.75;;;2.31;100.00
5062;BME280;2351;50.812;12.872;2024-02-28T03:25:37;98017.66;;;2.32;100.00
5062;BME280;2351;50.812;12.872;2024-02-28T03:28:09;98015.97;;;2.31;100.00
5062;BME280;2351;50.812;12.872;2024-02-28T03:30:41;98025.72;;;2.27;100.00
5062;BME280;2351;50.812;12.872;2024-02-28T03:33:13;98028.41;;;2.25;100.00
5062;BME280;2351;50.812;12.872;2024-02-28T03:35:44;98032.66;;;2.28;100.00
5062;BME280;2351;50.812;12.872;2024-02-28T03:38:16;98039.56;;;2.29;100.00
5062;BME280;2351;50.812;12.872;2024-02-28T03:40:49;98038.63;;;2.30;100.00
5062;BME280;2351;50.812;12.872;2024-02-28T03:43:21;98041.06;;;2.33;100.00
5062;BME280;2351;50.812;12.872;2024-02-28T03:45:53;98047.16;;;2.34;100.00
5062;BME280;2351;50.812;12.872;2024-02-28T03:48:25;98051.63;;;2.32;100.00
5062;BME280;2351;50.812;12.872;2024-02-28T03:50:56;98055.06;;;2.32;100.00
5062;BME280;2351;50.812;12.872;2024-02-28T03:53:28;98058.91;;;2.25;100.00
5062;BME280;2351;50.812;12.872;2024-02-28T03:56:01;98059.91;;;2.22;100.00
5062;BME280;2351;50.812;12.872;2024-02-28T03:58:33;98072.03;;;2.23;100.00
5062;BME280;2351;50.812;12.872;2024-02-28T04:01:05;98072.97;;;2.22;100.00
5062;BME280;2351;50.812;12.872;2024-02-28T04:03:36;98073.03;;;2.21;100.00
5062;BME280;2351;50.812;12.872;2024-02-28T04:06:08;98075.50;;;2.24;100.00
5062;BME280;2351;50.812;12.872;2024-02-28T04:08:40;98076.28;;;2.26;100.00
5062;BME280;2351;50.812;12.872;2024-02-28T04:11:13;98083.25;;;2.25;100.00
5062;BME280;2351;50.812;12.872;2024-02-28T04:13:45;98088.41;;;2.27;100.00
5062;BME280;2351;50.812;12.872;2024-02-28T04:16:17;98093.78;;;2.24;100.00
5062;BME280;2351;50.812;12.872;2024-02-28T04:18:48;98090.25;;;2.25;100.00
5062;BME280;2351;50.812;12.872;2024-02-28T04:21:20;98100.72;;;2.25;100.00
5062;BME280;2351;50.812;12.872;2024-02-28T04:23:52;98104.25;;;2.24;100.00
5062;BME280;2351;50.812;12.872;2024-02-28T04:26:25;98100.09;;;2.20;100.00
5062;BME280;2351;50.812;12.872;2024-02-28T04:28:56;98103.56;;;2.20;100.00
5062;BME280;2351;50.812;12.872;2024-02-28T04:31:29;98094.88;;;2.20;100.00
5062;BME280;2351;50.812;12.872;2024-02-28T04:34:01;98098.47;;;2.17;100.00
5062;BME280;2351;50.812;12.872;2024-02-28T04:36:32;98099.25;;;2.19;100.00
5062;BME280;2351;50.812;12.872;2024-02-28T04:39:04;98094.03;;;2.19;100.00
5062;BME280;2351;50.812;12.872;2024-02-28T04:41:39;98102.59;;;2.21;100.00
5062;BME280;2351;50.812;12.872;2024-02-28T04:44:10;98109.53;;;2.22;100.00
5062;BME280;2351;50.812;12.872;2024-02-28T04:46:42;98104.53;;;2.18;100.00
5062;BME280;2351;50.812;12.872;2024-02-28T04:49:14;98103.75;;;2.16;100.00
5062;BME280;2351;50.812;12.872;2024-02-28T04:51:46;98101.28;;;2.13;100.00
5062;BME280;2351;50.812;12.872;2024-02-28T04:54:17;98116.81;;;2.16;100.00
5062;BME280;2351;50.812;12.872;2024-02-28T04:56:50;98112.47;;;2.16;100.00
5062;BME280;2351;50.812;12.872;2024-02-28T04:59:22;98122.03;;;2.16;100.00
5062;BME280;2351;50.812;12.872;2024-02-28T05:01:54;98123.19;;;2.10;100.00
5062;BME280;2351;50.812;12.872;2024-02-28T05:04:25;98124.03;;;2.10;100.00
5062;BME280;2351;50.812;12.872;2024-02-28T05:06:57;98127.41;;;2.13;100.00
5062;BME280;2351;50.812;12.872;2024-02-28T05:09:29;98129.25;;;2.10;100.00
5062;BME280;2351;50.812;12.872;2024-02-28T05:12:02;98126.81;;;2.07;100.00
5062;BME280;2351;50.812;12.872;2024-02-28T05:14:34;98135.63;;;2.05;100.00
5062;BME280;2351;50.812;12.872;2024-02-28T05:17:06;98132.22;;;2.03;100.00
5062;BME280;2351;50.812;12.872;2024-02-28T05:19:38;98121.78;;;2.03;100.00
5062;BME280;2351;50.812;12.872;2024-02-28T05:22:10;98131.25;;;2.05;100.00
5062;BME280;2351;50.812;12.872;2024-02-28T05:24:45;98139.09;;;2.05;100.00
5062;BME280;2351;50.812;12.872;2024-02-28T05:27:18;98132.97;;;2.06;100.00
5062;BME280;2351;50.812;12.872;2024-02-28T05:29:50;98142.47;;;2.07;100.00
5062;BME280;2351;50.812;12.872;2024-02-28T05:32:22;98140.66;;;2.09;100.00
5062;BME280;2351;50.812;12.872;2024-02-28T05:34:53;98144.31;;;2.05;100.00
5062;BME280;2351;50.812;12.872;2024-02-28T05:37:25;98142.13;;;1.96;100.00
5062;BME280;2351;50.812;12.872;2024-02-28T05:39:57;98146.72;;;1.91;100.00
5062;BME280;2351;50.812;12.872;2024-02-28T05:42:30;98152.88;;;1.90;100.00
5062;BME280;2351;50.812;12.872;2024-02-28T05:45:01;98149.41;;;1.89;100.00
5062;BME280;2351;50.812;12.872;2024-02-28T05:47:33;98150.25;;;1.90;100.00
5062;BME280;2351;50.812;12.872;2024-02-28T05:50:05;98152.81;;;1.91;100.00
5062;BME280;2351;50.812;12.872;2024-02-28T05:52:37;98158.81;;;1.93;100.00
5062;BME280;2351;50.812;12.872;2024-02-28T05:55:09;98155.28;;;1.94;100.00
5062;BME280;2351;50.812;12.872;2024-02-28T05:57:42;98153.63;;;1.92;100.00
5062;BME280;2351;50.812;12.872;2024-02-28T06:00:14;98152.72;;;1.93;100.00
5062;BME280;2351;50.812;12.872;2024-02-28T06:02:46;98157.94;;;1.93;100.00
5062;BME280;2351;50.812;12.872;2024-02-28T06:05:17;98159.72;;;1.92;100.00
5062;BME280;2351;50.812;12.872;2024-02-28T06:07:49;98162.53;;;1.88;100.00
5062;BME280;2351;50.812;12.872;2024-02-28T06:10:21;98172.97;;;1.88;100.00
5062;BME280;2351;50.812;12.872;2024-02-28T06:12:54;98173.91;;;1.87;100.00
5062;BME280;2351;50.812;12.872;2024-02-28T06:15:26;98188.03;;;1.83;100.00
5062;BME280;2351;50.812;12.872;2024-02-28T06:17:58;98187.09;;;1.84;100.00
5062;BME280;2351;50.812;12.872;2024-02-28T06:20:30;98188.03;;;1.83;100.00
5062;BME280;2351;50.812;12.872;2024-02-28T06:23:02;98182.03;;;1.80;100.00
5062;BME280;2351;50.812;12.872;2024-02-28T06:25:34;98194.16;;;1.82;100.00
5062;BME280;2351;50.812;12.872;2024-02-28T06:28:07;98194.94;;;1.84;100.00
5062;BME280;2351;50.812;12.872;2024-02-28T06:30:40;98198.59;;;1.79;100.00
5062;BME280;2351;50.812;12.872;2024-02-28T06:33:12;98197.59;;;1.82;100.00
5062;BME280;2351;50.812;12.872;2024-02-28T06:35:44;98202.00;;;1.82;100.00
5062;BME280;2351;50.812;12.872;2024-02-28T06:38:15;98207.34;;;1.78;100.00
5062;BME280;2351;50.812;12.872;2024-02-28T06:40:47;98212.44;;;1.82;100.00
5062;BME280;2351;50.812;12.872;2024-02-28T06:43:20;98213.41;;;1.79;100.00
5062;BME280;2351;50.812;12.872;2024-02-28T06:45:52;98205.53;;;1.80;100.00
5062;BME280;2351;50.812;12.872;2024-02-28T06:48:23;98214.25;;;1.79;100.00
5062;BME280;2351;50.812;12.872;2024-02-28T06:50:55;98212.56;;;1.78;100.00
5062;BME280;2351;50.812;12.872;2024-02-28T06:53:28;98214.19;;;1.81;100.00
5062;BME280;2351;50.812;12.872;2024-02-28T06:56:01;98214.13;;;1.83;100.00
5062;BME280;2351;50.812;12.872;2024-02-28T06:58:34;98216.78;;;1.81;100.00
5062;BME280;2351;50.812;12.872;2024-02-28T07:01:06;98208.97;;;1.81;100.00
5062;BME280;2351;50.812;12.872;2024-02-28T07:03:37;98211.66;;;1.79;100.00
5062;BME280;2351;50.812;12.872;2024-02-28T07:06:09;98217.78;;;1.78;100.00
5062;BME280;2351;50.812;12.872;2024-02-28T07:08:41;98218.63;;;1.79;100.00
5062;BME280;2351;50.812;12.872;2024-02-28T07:11:13;98222.09;;;1.79;100.00
5062;BME280;2351;50.812;12.872;2024-02-28T07:13:46;98218.56;;;1.80;100.00
5062;BME280;2351;50.812;12.872;2024-02-28T07:16:18;98222.09;;;1.79;100.00
5062;BME280;2351;50.812;12.872;2024-02-28T07:18:50;98225.53;;;1.80;100.00
5062;BME280;2351;50.812;12.872;2024-02-28T07:21:21;98222.78;;;1.83;100.00
5062;BME280;2351;50.812;12.872;2024-02-28T07:23:53;98224.56;;;1.83;100.00
5062;BME280;2351;50.812;12.872;2024-02-28T07:26:25;98231.41;;;1.85;100.00
5062;BME280;2351;50.812;12.872;2024-02-28T07:28:58;98228.94;;;1.82;100.00
5062;BME280;2351;50.812;12.872;2024-02-28T07:31:29;98241.28;;;1.78;100.00
5062;BME280;2351;50.812;12.872;2024-02-28T07:34:01;98243.88;;;1.78;100.00
5062;BME280;2351;50.812;12.872;2024-02-28T07:36:33;98242.97;;;1.79;100.00
5062;BME280;2351;50.812;12.872;2024-02-28T07:39:04;98236.75;;;1.82;100.00
5062;BME280;2351;50.812;12.872;2024-02-28T07:41:36;98240.09;;;1.86;100.00
5062;BME280;2351;50.812;12.872;2024-02-28T07:44:09;98250.72;;;1.81;100.00
5062;BME280;2351;50.812;12.872;2024-02-28T07:46:41;98244.03;;;1.75;100.00
5062;BME280;2351;50.812;12.872;2024-02-28T07:49:13;98250.09;;;1.76;100.00
5062;BME280;2351;50.812;12.872;2024-02-28T07:51:45;98249.50;;;1.69;100.00
5062;BME280;2351;50.812;12.872;2024-02-28T07:54:16;98245.28;;;1.67;100.00
5062;BME280;2351;50.812;12.872;2024-02-28T07:56:48;98244.50;;;1.64;100.00
5062;BME280;2351;50.812;12.872;2024-02-28T07:59:21;98246.97;;;1.68;100.00
5062;BME280;2351;50.812;12.872;2024-02-28T08:01:53;98255.72;;;1.67;100.00
5062;BME280;2351;50.812;12.872;2024-02-28T08:04:25;98259.25;;;1.65;100.00
5062;BME280;2351;50.812;12.872;2024-02-28T08:06:57;98260.38;;;1.60;100.00
5062;BME280;2351;50.812;12.872;2024-02-28T08:09:29;98263.00;;;1.60;100.00
5062;BME280;2351;50.812;12.872;2024-02-28T08:12:01;98260.09;;;1.66;100.00
5062;BME280;2351;50.812;12.872;2024-02-28T08:14:34;98261.66;;;1.70;100.00
5062;BME280;2351;50.812;12.872;2024-02-28T08:17:05;98253.69;;;1.73;100.00
5062;BME280;2351;50.812;12.872;2024-02-28T08:19:37;98254.72;;;1.69;100.00
5062;BME280;2351;50.812;12.872;2024-02-28T08:22:09;98257.81;;;1.58;100.00
5062;BME280;2351;50.812;12.872;2024-02-28T08:24:40;98267.34;;;1.59;100.00
5062;BME280;2351;50.812;12.872;2024-02-28T08:27:12;98271.34;;;1.47;100.00
5062;BME280;2351;50.812;12.872;2024-02-28T08:29:45;98275.94;;;1.42;100.00
5062;BME280;2351;50.812;12.872;2024-02-28T08:32:18;98275.31;;;1.35;100.00
5062;BME280;2351;50.812;12.872;2024-02-28T08:34:48;98279.75;;;1.33;100.00
5062;BME280;2351;50.812;12.872;2024-02-28T08:37:20;98286.06;;;1.29;100.00
5062;BME280;2351;50.812;12.872;2024-02-28T08:39:52;98289.22;;;1.36;100.00
5062;BME280;2351;50.812;12.872;2024-02-28T08:42:25;98292.53;;;1.40;100.00
5062;BME280;2351;50.812;12.872;2024-02-28T08:44:59;98290.81;;;1.40;100.00
5062;BME280;2351;50.812;12.872;2024-02-28T08:47:33;98284.38;;;1.47;100.00
5062;BME280;2351;50.812;12.872;2024-02-28T08:50:06;98288.81;;;1.45;100.00
5062;BME280;2351;50.812;12.872;2024-02-28T08:52:37;98283.34;;;1.52;100.00
5062;BME280;2351;50.812;12.872;2024-02-28T08:55:09;98299.69;;;1.55;100.00
5062;BME280;2351;50.812;12.872;2024-02-28T08:57:41;98294.44;;;1.57;100.00
5062;BME280;2351;50.812;12.872;2024-02-28T09:00:15;98298.03;;;1.54;100.00
5062;BME280;2351;50.812;12.872;2024-02-28T09:02:47;98305.00;;;1.54;100.00
5062;BME280;2351;50.812;12.872;2024-02-28T09:05:19;98296.25;;;1.55;100.00
5062;BME280;2351;50.812;12.872;2024-02-28T09:07:51;98299.56;;;1.58;100.00
5062;BME280;2351;50.812;12.872;2024-02-28T09:10:25;98308.13;;;1.62;100.00
5062;BME280;2351;50.812;12.872;2024-02-28T09:12:56;98309.66;;;1.66;100.00
5062;BME280;2351;50.812;12.872;2024-02-28T09:15:29;98308.91;;;1.64;100.00
5062;BME280;2351;50.812;12.872;2024-02-28T09:18:01;98314.38;;;1.58;100.00
5062;BME280;2351;50.812;12.872;2024-02-28T09:20:33;98313.47;;;1.59;100.00
5062;BME280;2351;50.812;12.872;2024-02-28T09:23:04;98306.56;;;1.58;100.00
5062;BME280;2351;50.812;12.872;2024-02-28T09:25:37;98311.78;;;1.58;100.00
5062;BME280;2351;50.812;12.872;2024-02-28T09:28:08;98311.44;;;1.65;100.00
5062;BME280;2351;50.812;12.872;2024-02-28T09:30:44;98318.00;;;1.74;100.00
5062;BME280;2351;50.812;12.872;2024-02-28T09:33:18;98322.91;;;1.82;100.00
5062;BME280;2351;50.812;12.872;2024-02-28T09:35:50;98321.63;;;1.91;100.00
5062;BME280;2351;50.812;12.872;2024-02-28T09:38:21;98327.38;;;1.99;100.00
5062;BME280;2351;50.812;12.872;2024-02-28T09:40:53;98313.31;;;2.02;100.00
5062;BME280;2351;50.812;12.872;2024-02-28T09:43:28;98320.84;;;2.09;100.00
5062;BME280;2351;50.812;12.872;2024-02-28T09:46:04;98320.47;;;2.17;100.00
5062;BME280;2351;50.812;12.872;2024-02-28T09:48:36;98322.34;;;2.14;100.00
5062;BME280;2351;50.812;12.872;2024-02-28T09:51:09;98321.56;;;2.11;100.00
5062;BME280;2351;50.812;12.872;2024-02-28T09:53:43;98324.97;;;2.14;100.00
5062;BME280;2351;50.812;12.872;2024-02-28T09:56:15;98324.84;;;2.17;100.00
5062;BME280;2351;50.812;12.872;2024-02-28T09:58:47;98324.69;;;2.20;100.00
5062;BME280;2351;50.812;12.872;2024-02-28T10:01:21;98334.75;;;2.29;100.00
5062;BME280;2351;50.812;12.872;2024-02-28T10:03:54;98334.44;;;2.35;100.00
5062;BME280;2351;50.812;12.872;2024-02-28T10:06:26;98338.59;;;2.39;100.00
5062;BME280;2351;50.812;12.872;2024-02-28T10:08:58;98351.31;;;2.47;100.00
5062;BME280;2351;50.812;12.872;2024-02-28T10:11:29;98352.03;;;2.51;100.00
5062;BME280;2351;50.812;12.872;2024-02-28T10:14:01;98350.81;;;2.58;100.00
5062;BME280;2351;50.812;12.872;2024-02-28T10:16:34;98359.50;;;2.59;100.00
5062;BME280;2351;50.812;12.872;2024-02-28T10:19:06;98357.03;;;2.55;100.00
5062;BME280;2351;50.812;12.872;2024-02-28T10:21:38;98370.78;;;2.59;100.00
5062;BME280;2351;50.812;12.872;2024-02-28T10:24:11;98373.53;;;2.56;100.00
5062;BME280;2351;50.812;12.872;2024-02-28T10:26:44;98377.16;;;2.53;100.00
5062;BME280;2351;50.812;12.872;2024-02-28T10:29:18;98373.28;;;2.62;100.00
5062;BME280;2351;50.812;12.872;2024-02-28T10:31:51;98373.03;;;2.67;100.00
5062;BME280;2351;50.812;12.872;2024-02-28T10:34:23;98377.94;;;2.75;100.00
5062;BME280;2351;50.812;12.872;2024-02-28T10:36:56;98369.50;;;2.87;100.00
5062;BME280;2351;50.812;12.872;2024-02-28T10:39:28;98374.91;;;3.01;100.00
5062;BME280;2351;50.812;12.872;2024-02-28T10:42:02;98371.72;;;3.14;100.00
5062;BME280;2351;50.812;12.872;2024-02-28T10:44:35;98363.19;;;3.28;100.00
5062;BME280;2351;50.812;12.872;2024-02-28T10:47:09;98367.69;;;3.24;100.00
5062;BME280;2351;50.812;12.872;2024-02-28T10:49:42;98376.50;;;2.86;100.00
5062;BME280;2351;50.812;12.872;2024-02-28T10:52:15;98385.59;;;2.78;100.00
5062;BME280;2351;50.812;12.872;2024-02-28T10:54:54;98385.78;;;2.75;100.00
5062;BME280;2351;50.812;12.872;2024-02-28T10:57:26;98382.06;;;2.79;100.00
5062;BME280;2351;50.812;12.872;2024-02-28T10:59:59;98382.44;;;2.90;100.00
5062;BME280;2351;50.812;12.872;2024-02-28T11:02:32;98383.91;;;2.96;100.00
5062;BME280;2351;50.812;12.872;2024-02-28T11:05:05;98379.13;;;2.86;100.00
5062;BME280;2351;50.812;12.872;2024-02-28T11:07:40;98383.34;;;2.70;100.00
5062;BME280;2351;50.812;12.872;2024-02-28T11:10:13;98386.84;;;2.70;100.00
5062;BME280;2351;50.812;12.872;2024-02-28T11:12:54;98387.25;;;2.80;100.00
5062;BME280;2351;50.812;12.872;2024-02-28T11:15:26;98379.53;;;2.77;100.00
5062;BME280;2351;50.812;12.872;2024-02-28T11:18:08;98387.47;;;2.76;100.00
5062;BME280;2351;50.812;12.872;2024-02-28T11:20:40;98387.44;;;2.95;100.00
5062;BME280;2351;50.812;12.872;2024-02-28T11:23:14;98396.47;;;3.24;100.00
5062;BME280;2351;50.812;12.872;2024-02-28T11:25:46;98378.78;;;3.47;100.00
5062;BME280;2351;50.812;12.872;2024-02-28T11:28:18;98383.09;;;3.66;100.00
5062;BME280;2351;50.812;12.872;2024-02-28T11:30:54;98382.31;;;3.81;100.00
5062;BME280;2351;50.812;12.872;2024-02-28T11:33:28;98388.50;;;3.80;100.00
5062;BME280;2351;50.812;12.872;2024-02-28T11:36:03;98386.78;;;3.79;100.00
5062;BME280;2351;50.812;12.872;2024-02-28T11:38:35;98384.59;;;3.87;100.00
5062;BME280;2351;50.812;12.872;2024-02-28T11:41:08;98383.38;;;3.95;100.00
5062;BME280;2351;50.812;12.872;2024-02-28T11:43:40;98391.84;;;4.00;100.00
5062;BME280;2351;50.812;12.872;2024-02-28T11:46:12;98390.97;;;3.83;100.00
5062;BME280;2351;50.812;12.872;2024-02-28T11:48:46;98391.41;;;3.74;100.00
5062;BME280;2351;50.812;12.872;2024-02-28T11:51:18;98396.41;;;3.79;100.00
5062;BME280;2351;50.812;12.872;2024-02-28T11:53:50;98395.19;;;3.86;100.00
5062;BME280;2351;50.812;12.872;2024-02-28T11:56:22;98395.53;;;3.96;100.00
5062;BME280;2351;50.812;12.872;2024-02-28T11:58:54;98393.69;;;3.98;100.00
5062;BME280;2351;50.812;12.872;2024-02-28T12:01:36;98391.56;;;4.22;100.00
5062;BME280;2351;50.812;12.872;2024-02-28T12:04:10;98396.59;;;4.59;100.00
5062;BME280;2351;50.812;12.872;2024-02-28T12:06:42;98389.78;;;4.72;100.00
5062;BME280;2351;50.812;12.872;2024-02-28T12:09:14;98397.09;;;4.65;100.00
5062;BME280;2351;50.812;12.872;2024-02-28T12:11:46;98396.78;;;4.72;100.00
5062;BME280;2351;50.812;12.872;2024-02-28T12:14:18;98402.25;;;4.99;100.00
5062;BME280;2351;50.812;12.872;2024-02-28T12:16:50;98398.88;;;5.13;100.00
5062;BME280;2351;50.812;12.872;2024-02-28T12:19:24;98398.38;;;5.06;100.00
5062;BME280;2351;50.812;12.872;2024-02-28T12:21:56;98389.56;;;5.07;100.00
5062;BME280;2351;50.812;12.872;2024-02-28T12:24:29;98381.38;;;4.97;100.00
5062;BME280;2351;50.812;12.872;2024-02-28T12:27:01;98382.41;;;4.95;100.00
5062;BME280;2351;50.812;12.872;2024-02-28T12:29:33;98386.19;;;4.41;100.00
5062;BME280;2351;50.812;12.872;2024-02-28T12:32:05;98384.88;;;4.16;100.00
5062;BME280;2351;50.812;12.872;2024-02-28T12:34:38;98379.09;;;4.43;100.00
5062;BME280;2351;50.812;12.872;2024-02-28T12:37:10;98381.72;;;4.91;100.00
5062;BME280;2351;50.812;12.872;2024-02-28T12:39:42;98377.03;;;5.12;100.00
5062;BME280;2351;50.812;12.872;2024-02-28T12:42:14;98376.50;;;5.22;100.00
5062;BME280;2351;50.812;12.872;2024-02-28T12:44:45;98375.94;;;5.17;100.00
5062;BME280;2351;50.812;12.872;2024-02-28T12:47:17;98375.53;;;5.08;100.00
5062;BME280;2351;50.812;12.872;2024-02-28T12:49:50;98379.28;;;4.72;100.00
5062;BME280;2351;50.812;12.872;2024-02-28T12:52:23;98377.06;;;4.80;100.00
5062;BME280;2351;50.812;12.872;2024-02-28T12:54:55;98375.84;;;5.18;100.00
5062;BME280;2351;50.812;12.872;2024-02-28T12:57:31;98371.19;;;5.54;100.00
5062;BME280;2351;50.812;12.872;2024-02-28T13:00:04;98372.06;;;5.83;100.00
5062;BME280;2351;50.812;12.872;2024-02-28T13:02:38;98369.31;;;5.70;100.00
5062;BME280;2351;50.812;12.872;2024-02-28T13:05:12;98365.34;;;5.18;100.00
5062;BME280;2351;50.812;12.872;2024-02-28T13:07:44;98365.97;;;5.83;100.00
5062;BME280;2351;50.812;12.872;2024-02-28T13:10:21;98368.66;;;6.26;100.00
5062;BME280;2351;50.812;12.872;2024-02-28T13:12:53;98366.75;;;6.43;100.00
5062;BME280;2351;50.812;12.872;2024-02-28T13:15:25;98366.94;;;6.40;100.00
5062;BME280;2351;50.812;12.872;2024-02-28T13:17:57;98372.09;;;6.41;100.00
5062;BME280;2351;50.812;12.872;2024-02-28T13:20:31;98371.34;;;6.54;100.00
5062;BME280;2351;50.812;12.872;2024-02-28T13:23:04;98369.81;;;6.78;100.00
5062;BME280;2351;50.812;12.872;2024-02-28T13:25:36;98364.19;;;6.98;100.00
5062;BME280;2351;50.812;12.872;2024-02-28T13:28:08;98372.38;;;7.20;100.00
5062;BME280;2351;50.812;12.872;2024-02-28T13:30:40;98358.31;;;7.34;100.00
5062;BME280;2351;50.812;12.872;2024-02-28T13:33:11;98361.00;;;7.20;100.00
5062;BME280;2351;50.812;12.872;2024-02-28T13:35:45;98367.72;;;7.11;100.00